首页
METAR-TAF:

METAR-TAF

机场 :

Bar Harbor, 缅因州, 美国

纬度: 44-27N, 经度: 068-22W, 海拔: 26米

当前天气观测

该预报发布于55分钟前的00:56 UTC
风速9节,风向南转西南
温度 22°C
湿度 83%
气压 1010 hPa
能見度: 16.1公里
天空无云

METAR: KBHB 180056Z AUTO 20009KT 10SM CLR 22/19 A2982 RMK AO2 SLP098 T02170194

时间: 21:51 (01:51 UTC)

预报

该预报发布于2小时和30分钟前的23:21 UTC
预报有效从18日的 00点(UTC)到 18日的 24点(UTC)
风速7节,风向南转西南
能見度: 10公里
多云层高于12000英尺
从 18日的 0500点(UTC)
风速2节,风向多变
能見度: 3.2公里
散云层高于600英尺
轻雾
从 18日的 0800点(UTC)
风速2节,风向多变
能見度: 1.2公里
阴天层高于400英尺
轻雾
从 18日的 1200点(UTC)
风速3节,风向多变
能見度: 3.2公里
阴天层高于1200英尺
轻雾, 附近有阵雨
从 18日的 1400点(UTC)
风速4节,风向南转西南
能見度: 10公里
多云层高于1200英尺
附近有阵雨
从 18日的 1700点(UTC)
风速6节,风向西南
能見度: 10公里
散云层高于5000英尺

TAF: KBHB 172321Z 1800/1824 21007KT P6SM BKN120 FM180500 VRB02KT 2SM BR SCT006 FM180800 VRB02KT 3/4SM BR OVC004 FM181200 VRB03KT 2SM BR VCSH OVC012 FM181400 21004KT P6SM VCSH BKN012 FM181700 22006KT P6SM SCT050

超过4000个机场的气象观测和天气预报(METAR&TAF报告)。

可查询的气象台以黄色和红色小点在地图上表示。

将鼠标移到小点上方,可查看气象台名称。

然后点击查看天气观测和预报。

如需切换地图:点击带黑十字的绿色按钮放大地图;点击带横线的绿色按钮缩小地图;或者点击绿色箭头查看邻近地区的地图。


METAR-TAF: